sensor_id;sensor_type;location;lat;lon;timestamp;temperature;humidity
31131;DHT22;20292;50.944;4.034;2023-11-21T00:02:12;11.50;99.90
31131;DHT22;20292;50.944;4.034;2023-11-21T00:04:37;11.40;99.90
31131;DHT22;20292;50.944;4.034;2023-11-21T00:07:03;11.40;99.90
31131;DHT22;20292;50.944;4.034;2023-11-21T00:09:29;11.40;99.90
31131;DHT22;20292;50.944;4.034;2023-11-21T00:11:54;11.30;99.90
31131;DHT22;20292;50.944;4.034;2023-11-21T00:14:20;11.30;99.90
31131;DHT22;20292;50.944;4.034;2023-11-21T00:16:45;11.20;99.90
31131;DHT22;20292;50.944;4.034;2023-11-21T00:19:11;11.20;99.90
31131;DHT22;20292;50.944;4.034;2023-11-21T00:21:37;11.30;99.90
31131;DHT22;20292;50.944;4.034;2023-11-21T00:24:03;11.30;99.90
31131;DHT22;20292;50.944;4.034;2023-11-21T00:26:29;11.30;99.90
31131;DHT22;20292;50.944;4.034;2023-11-21T00:28:56;11.40;99.90
31131;DHT22;20292;50.944;4.034;2023-11-21T00:31:22;11.40;99.90
31131;DHT22;20292;50.944;4.034;2023-11-21T00:33:47;11.50;99.90
31131;DHT22;20292;50.944;4.034;2023-11-21T00:36:13;11.50;99.90
31131;DHT22;20292;50.944;4.034;2023-11-21T00:38:38;11.60;99.90
31131;DHT22;20292;50.944;4.034;2023-11-21T00:41:05;11.60;99.90
31131;DHT22;20292;50.944;4.034;2023-11-21T00:43:31;11.50;99.90
31131;DHT22;20292;50.944;4.034;2023-11-21T00:45:58;11.60;99.90
31131;DHT22;20292;50.944;4.034;2023-11-21T00:48:24;11.50;99.90
31131;DHT22;20292;50.944;4.034;2023-11-21T00:50:50;11.50;99.90
31131;DHT22;20292;50.944;4.034;2023-11-21T00:53:16;11.50;99.90
31131;DHT22;20292;50.944;4.034;2023-11-21T00:55:42;11.40;99.90
31131;DHT22;20292;50.944;4.034;2023-11-21T00:58:08;11.50;99.90
31131;DHT22;20292;50.944;4.034;2023-11-21T01:00:33;11.50;99.90
31131;DHT22;20292;50.944;4.034;2023-11-21T01:02:59;11.60;99.90
31131;DHT22;20292;50.944;4.034;2023-11-21T01:05:25;11.60;99.90
31131;DHT22;20292;50.944;4.034;2023-11-21T01:07:52;11.70;99.90
31131;DHT22;20292;50.944;4.034;2023-11-21T01:10:17;11.70;99.90
31131;DHT22;20292;50.944;4.034;2023-11-21T01:12:43;11.70;99.90
31131;DHT22;20292;50.944;4.034;2023-11-21T01:15:09;11.80;99.90
31131;DHT22;20292;50.944;4.034;2023-11-21T01:17:37;11.90;99.90
31131;DHT22;20292;50.944;4.034;2023-11-21T01:20:04;11.90;99.90
31131;DHT22;20292;50.944;4.034;2023-11-21T01:22:36;12.00;99.90
31131;DHT22;20292;50.944;4.034;2023-11-21T01:25:01;12.10;99.90
31131;DHT22;20292;50.944;4.034;2023-11-21T01:27:29;12.10;99.90
31131;DHT22;20292;50.944;4.034;2023-11-21T01:29:55;12.00;99.90
31131;DHT22;20292;50.944;4.034;2023-11-21T01:32:20;12.00;99.90
31131;DHT22;20292;50.944;4.034;2023-11-21T01:34:47;12.00;99.90
31131;DHT22;20292;50.944;4.034;2023-11-21T01:37:12;12.00;99.90
31131;DHT22;20292;50.944;4.034;2023-11-21T01:39:39;12.00;99.90
31131;DHT22;20292;50.944;4.034;2023-11-21T01:42:05;12.10;99.90
31131;DHT22;20292;50.944;4.034;2023-11-21T01:44:31;12.20;99.90
31131;DHT22;20292;50.944;4.034;2023-11-21T01:46:57;12.20;99.90
31131;DHT22;20292;50.944;4.034;2023-11-21T01:49:23;12.30;99.90
31131;DHT22;20292;50.944;4.034;2023-11-21T01:51:49;12.30;99.90
31131;DHT22;20292;50.944;4.034;2023-11-21T01:54:17;12.30;99.90
31131;DHT22;20292;50.944;4.034;2023-11-21T01:56:46;12.30;99.90
31131;DHT22;20292;50.944;4.034;2023-11-21T01:59:15;12.30;99.90
31131;DHT22;20292;50.944;4.034;2023-11-21T02:01:43;12.40;99.90
31131;DHT22;20292;50.944;4.034;2023-11-21T02:04:09;12.40;99.90
31131;DHT22;20292;50.944;4.034;2023-11-21T02:06:35;12.40;99.90
31131;DHT22;20292;50.944;4.034;2023-11-21T02:09:01;12.40;99.90
31131;DHT22;20292;50.944;4.034;2023-11-21T02:11:26;12.40;99.90
31131;DHT22;20292;50.944;4.034;2023-11-21T02:13:53;12.50;99.90
31131;DHT22;20292;50.944;4.034;2023-11-21T02:16:19;12.50;99.90
31131;DHT22;20292;50.944;4.034;2023-11-21T02:18:47;12.40;99.90
31131;DHT22;20292;50.944;4.034;2023-11-21T02:21:14;12.40;99.90
31131;DHT22;20292;50.944;4.034;2023-11-21T02:23:40;12.40;99.90
31131;DHT22;20292;50.944;4.034;2023-11-21T02:26:10;12.30;99.90
31131;DHT22;20292;50.944;4.034;2023-11-21T02:28:36;12.20;99.90
31131;DHT22;20292;50.944;4.034;2023-11-21T02:31:02;12.10;99.90
31131;DHT22;20292;50.944;4.034;2023-11-21T02:33:30;12.00;99.90
31131;DHT22;20292;50.944;4.034;2023-11-21T02:36:02;12.00;99.90
31131;DHT22;20292;50.944;4.034;2023-11-21T02:38:28;12.10;99.90
31131;DHT22;20292;50.944;4.034;2023-11-21T02:40:53;12.20;99.90
31131;DHT22;20292;50.944;4.034;2023-11-21T02:43:19;12.20;99.90
31131;DHT22;20292;50.944;4.034;2023-11-21T02:45:44;12.30;99.90
31131;DHT22;20292;50.944;4.034;2023-11-21T02:48:10;12.20;99.90
31131;DHT22;20292;50.944;4.034;2023-11-21T02:50:36;12.10;99.90
31131;DHT22;20292;50.944;4.034;2023-11-21T02:53:02;12.00;99.90
31131;DHT22;20292;50.944;4.034;2023-11-21T02:55:28;12.00;99.90
31131;DHT22;20292;50.944;4.034;2023-11-21T02:57:54;11.90;99.90
31131;DHT22;20292;50.944;4.034;2023-11-21T03:00:22;12.00;99.90
31131;DHT22;20292;50.944;4.034;2023-11-21T03:02:49;12.00;99.90
31131;DHT22;20292;50.944;4.034;2023-11-21T03:05:15;12.00;99.90
31131;DHT22;20292;50.944;4.034;2023-11-21T03:07:40;12.00;99.90
31131;DHT22;20292;50.944;4.034;2023-11-21T03:10:07;12.00;99.90
31131;DHT22;20292;50.944;4.034;2023-11-21T03:12:36;12.00;99.90
31131;DHT22;20292;50.944;4.034;2023-11-21T03:15:02;12.00;99.90
31131;DHT22;20292;50.944;4.034;2023-11-21T03:17:28;12.00;99.90
31131;DHT22;20292;50.944;4.034;2023-11-21T03:19:54;11.90;99.90
31131;DHT22;20292;50.944;4.034;2023-11-21T03:22:20;11.90;99.90
31131;DHT22;20292;50.944;4.034;2023-11-21T03:24:46;12.00;99.90
31131;DHT22;20292;50.944;4.034;2023-11-21T03:27:11;12.00;99.90
31131;DHT22;20292;50.944;4.034;2023-11-21T03:29:37;11.90;99.90
31131;DHT22;20292;50.944;4.034;2023-11-21T03:32:03;12.00;99.90
31131;DHT22;20292;50.944;4.034;2023-11-21T03:34:29;11.80;99.90
31131;DHT22;20292;50.944;4.034;2023-11-21T03:36:55;11.80;99.90
31131;DHT22;20292;50.944;4.034;2023-11-21T03:39:21;11.80;99.90
31131;DHT22;20292;50.944;4.034;2023-11-21T03:41:47;11.80;99.90
31131;DHT22;20292;50.944;4.034;2023-11-21T03:44:13;11.80;99.90
31131;DHT22;20292;50.944;4.034;2023-11-21T03:46:39;11.70;99.90
31131;DHT22;20292;50.944;4.034;2023-11-21T03:49:04;11.80;99.90
31131;DHT22;20292;50.944;4.034;2023-11-21T03:51:30;11.80;99.90
31131;DHT22;20292;50.944;4.034;2023-11-21T03:53:56;12.00;99.90
31131;DHT22;20292;50.944;4.034;2023-11-21T03:56:21;12.00;99.90
31131;DHT22;20292;50.944;4.034;2023-11-21T03:58:47;12.00;99.90
31131;DHT22;20292;50.944;4.034;2023-11-21T04:01:24;12.00;99.90
31131;DHT22;20292;50.944;4.034;2023-11-21T04:03:50;12.00;99.90
31131;DHT22;20292;50.944;4.034;2023-11-21T04:06:16;12.00;99.90
31131;DHT22;20292;50.944;4.034;2023-11-21T04:08:45;12.00;99.90
31131;DHT22;20292;50.944;4.034;2023-11-21T04:11:11;12.00;99.90
31131;DHT22;20292;50.944;4.034;2023-11-21T04:13:38;12.10;99.90
31131;DHT22;20292;50.944;4.034;2023-11-21T04:16:08;12.20;99.90
31131;DHT22;20292;50.944;4.034;2023-11-21T04:18:36;12.10;99.90
31131;DHT22;20292;50.944;4.034;2023-11-21T04:21:01;12.20;99.90
31131;DHT22;20292;50.944;4.034;2023-11-21T04:23:29;12.20;99.90
31131;DHT22;20292;50.944;4.034;2023-11-21T04:25:54;12.20;99.90
31131;DHT22;20292;50.944;4.034;2023-11-21T04:28:22;12.10;99.90
31131;DHT22;20292;50.944;4.034;2023-11-21T04:30:48;12.00;99.90
31131;DHT22;20292;50.944;4.034;2023-11-21T04:33:13;12.10;99.90
31131;DHT22;20292;50.944;4.034;2023-11-21T04:35:39;12.20;99.90
31131;DHT22;20292;50.944;4.034;2023-11-21T04:38:05;12.30;99.90
31131;DHT22;20292;50.944;4.034;2023-11-21T04:40:30;12.30;99.90
31131;DHT22;20292;50.944;4.034;2023-11-21T04:42:56;12.40;99.90
31131;DHT22;20292;50.944;4.034;2023-11-21T04:45:22;12.50;99.90
31131;DHT22;20292;50.944;4.034;2023-11-21T04:47:48;12.50;99.90
31131;DHT22;20292;50.944;4.034;2023-11-21T04:50:13;12.50;99.90
31131;DHT22;20292;50.944;4.034;2023-11-21T04:52:39;12.50;99.90
31131;DHT22;20292;50.944;4.034;2023-11-21T04:55:05;12.60;99.90
31131;DHT22;20292;50.944;4.034;2023-11-21T04:57:35;12.60;99.90
31131;DHT22;20292;50.944;4.034;2023-11-21T05:00:01;12.70;99.90
31131;DHT22;20292;50.944;4.034;2023-11-21T05:02:26;12.50;99.90
31131;DHT22;20292;50.944;4.034;2023-11-21T05:04:52;12.50;99.90
31131;DHT22;20292;50.944;4.034;2023-11-21T05:07:18;12.50;99.90
31131;DHT22;20292;50.944;4.034;2023-11-21T05:09:44;12.50;99.90
31131;DHT22;20292;50.944;4.034;2023-11-21T05:12:14;12.50;99.90
31131;DHT22;20292;50.944;4.034;2023-11-21T05:14:40;12.50;99.90
31131;DHT22;20292;50.944;4.034;2023-11-21T05:17:05;12.40;99.90
31131;DHT22;20292;50.944;4.034;2023-11-21T05:19:31;12.30;99.90
31131;DHT22;20292;50.944;4.034;2023-11-21T05:21:58;12.50;99.90
31131;DHT22;20292;50.944;4.034;2023-11-21T05:24:25;12.50;99.90
31131;DHT22;20292;50.944;4.034;2023-11-21T05:26:51;12.50;99.90
31131;DHT22;20292;50.944;4.034;2023-11-21T05:29:16;12.50;99.90
31131;DHT22;20292;50.944;4.034;2023-11-21T05:31:42;12.60;99.90
31131;DHT22;20292;50.944;4.034;2023-11-21T05:34:08;12.60;99.90
31131;DHT22;20292;50.944;4.034;2023-11-21T05:36:33;12.50;99.90
31131;DHT22;20292;50.944;4.034;2023-11-21T05:38:59;12.50;99.90
31131;DHT22;20292;50.944;4.034;2023-11-21T05:41:24;12.60;99.90
31131;DHT22;20292;50.944;4.034;2023-11-21T05:43:51;12.60;99.90
31131;DHT22;20292;50.944;4.034;2023-11-21T05:46:16;12.60;99.90
31131;DHT22;20292;50.944;4.034;2023-11-21T05:48:42;12.60;99.90
31131;DHT22;20292;50.944;4.034;2023-11-21T05:51:08;12.60;99.90
31131;DHT22;20292;50.944;4.034;2023-11-21T05:53:34;12.60;99.90
31131;DHT22;20292;50.944;4.034;2023-11-21T05:55:59;12.70;99.90
31131;DHT22;20292;50.944;4.034;2023-11-21T05:58:25;12.70;99.90
31131;DHT22;20292;50.944;4.034;2023-11-21T06:00:51;12.70;99.90
31131;DHT22;20292;50.944;4.034;2023-11-21T06:03:16;12.60;99.90
31131;DHT22;20292;50.944;4.034;2023-11-21T06:05:42;12.70;99.90
31131;DHT22;20292;50.944;4.034;2023-11-21T06:08:08;12.60;99.90
31131;DHT22;20292;50.944;4.034;2023-11-21T06:10:34;12.70;99.90
31131;DHT22;20292;50.944;4.034;2023-11-21T06:13:00;12.70;99.90
31131;DHT22;20292;50.944;4.034;2023-11-21T06:15:25;12.70;99.90
31131;DHT22;20292;50.944;4.034;2023-11-21T06:17:51;12.70;99.90
31131;DHT22;20292;50.944;4.034;2023-11-21T06:20:20;12.80;99.90
31131;DHT22;20292;50.944;4.034;2023-11-21T06:22:48;12.70;99.90
31131;DHT22;20292;50.944;4.034;2023-11-21T06:25:14;12.70;99.90
31131;DHT22;20292;50.944;4.034;2023-11-21T06:27:44;12.70;99.90
31131;DHT22;20292;50.944;4.034;2023-11-21T06:30:11;12.70;99.90
31131;DHT22;20292;50.944;4.034;2023-11-21T06:32:37;12.70;99.90
31131;DHT22;20292;50.944;4.034;2023-11-21T06:35:04;12.70;99.90
31131;DHT22;20292;50.944;4.034;2023-11-21T06:37:30;12.70;99.90
31131;DHT22;20292;50.944;4.034;2023-11-21T06:39:58;12.70;99.90
31131;DHT22;20292;50.944;4.034;2023-11-21T06:42:25;12.70;99.90
31131;DHT22;20292;50.944;4.034;2023-11-21T06:44:51;12.70;99.90
31131;DHT22;20292;50.944;4.034;2023-11-21T06:47:17;12.60;99.90
31131;DHT22;20292;50.944;4.034;2023-11-21T06:49:45;12.60;99.90
31131;DHT22;20292;50.944;4.034;2023-11-21T06:52:13;12.50;99.90
31131;DHT22;20292;50.944;4.034;2023-11-21T06:54:38;12.40;99.90
31131;DHT22;20292;50.944;4.034;2023-11-21T06:57:04;12.30;99.90
31131;DHT22;20292;50.944;4.034;2023-11-21T06:59:29;12.40;99.90
31131;DHT22;20292;50.944;4.034;2023-11-21T07:01:55;12.40;99.90
31131;DHT22;20292;50.944;4.034;2023-11-21T07:04:21;12.40;99.90
31131;DHT22;20292;50.944;4.034;2023-11-21T07:06:46;12.40;99.90
31131;DHT22;20292;50.944;4.034;2023-11-21T07:09:12;12.40;99.90
31131;DHT22;20292;50.944;4.034;2023-11-21T07:11:38;12.40;99.90
31131;DHT22;20292;50.944;4.034;2023-11-21T07:14:04;12.50;99.90
31131;DHT22;20292;50.944;4.034;2023-11-21T07:16:38;12.40;99.90
31131;DHT22;20292;50.944;4.034;2023-11-21T07:19:05;12.40;99.90
31131;DHT22;20292;50.944;4.034;2023-11-21T07:21:34;12.40;99.90
31131;DHT22;20292;50.944;4.034;2023-11-21T07:24:00;12.50;99.90
31131;DHT22;20292;50.944;4.034;2023-11-21T07:26:27;12.50;99.90
31131;DHT22;20292;50.944;4.034;2023-11-21T07:28:52;12.50;99.90
31131;DHT22;20292;50.944;4.034;2023-11-21T07:31:18;12.50;99.90
31131;DHT22;20292;50.944;4.034;2023-11-21T07:33:45;12.50;99.90
31131;DHT22;20292;50.944;4.034;2023-11-21T07:36:12;12.60;99.90
31131;DHT22;20292;50.944;4.034;2023-11-21T07:38:38;12.60;99.90
31131;DHT22;20292;50.944;4.034;2023-11-21T07:41:04;12.70;99.90
31131;DHT22;20292;50.944;4.034;2023-11-21T07:43:30;12.70;99.90
31131;DHT22;20292;50.944;4.034;2023-11-21T07:46:01;12.70;99.90
31131;DHT22;20292;50.944;4.034;2023-11-21T07:48:28;12.70;99.90
31131;DHT22;20292;50.944;4.034;2023-11-21T07:50:54;12.70;99.90
31131;DHT22;20292;50.944;4.034;2023-11-21T07:53:19;12.70;99.90
31131;DHT22;20292;50.944;4.034;2023-11-21T07:55:45;12.80;99.90
31131;DHT22;20292;50.944;4.034;2023-11-21T07:58:12;12.80;99.90
31131;DHT22;20292;50.944;4.034;2023-11-21T08:00:38;12.90;99.90
31131;DHT22;20292;50.944;4.034;2023-11-21T08:03:05;13.00;99.90
31131;DHT22;20292;50.944;4.034;2023-11-21T08:05:31;12.90;99.90
31131;DHT22;20292;50.944;4.034;2023-11-21T08:07:57;13.00;99.90
31131;DHT22;20292;50.944;4.034;2023-11-21T08:10:22;12.90;99.90
31131;DHT22;20292;50.944;4.034;2023-11-21T08:12:48;13.10;99.90
31131;DHT22;20292;50.944;4.034;2023-11-21T08:15:15;13.10;99.90
31131;DHT22;20292;50.944;4.034;2023-11-21T08:17:41;13.10;99.90
31131;DHT22;20292;50.944;4.034;2023-11-21T08:20:07;13.20;99.90
31131;DHT22;20292;50.944;4.034;2023-11-21T08:22:33;13.10;99.90
31131;DHT22;20292;50.944;4.034;2023-11-21T08:24:59;13.10;99.90
31131;DHT22;20292;50.944;4.034;2023-11-21T08:27:25;13.00;99.90
31131;DHT22;20292;50.944;4.034;2023-11-21T08:29:50;13.10;99.90
31131;DHT22;20292;50.944;4.034;2023-11-21T08:32:17;13.10;99.90
31131;DHT22;20292;50.944;4.034;2023-11-21T08:34:43;13.10;99.90
31131;DHT22;20292;50.944;4.034;2023-11-21T08:37:10;13.10;99.90
31131;DHT22;20292;50.944;4.034;2023-11-21T08:39:37;13.10;99.90
31131;DHT22;20292;50.944;4.034;2023-11-21T08:42:03;13.10;99.90
31131;DHT22;20292;50.944;4.034;2023-11-21T08:44:29;13.20;99.90
31131;DHT22;20292;50.944;4.034;2023-11-21T08:46:55;13.10;99.90
31131;DHT22;20292;50.944;4.034;2023-11-21T08:49:21;13.10;99.90
31131;DHT22;20292;50.944;4.034;2023-11-21T08:51:46;13.10;99.90
31131;DHT22;20292;50.944;4.034;2023-11-21T08:54:12;13.20;99.90
31131;DHT22;20292;50.944;4.034;2023-11-21T08:56:40;13.20;99.90
31131;DHT22;20292;50.944;4.034;2023-11-21T08:59:05;13.20;99.90
31131;DHT22;20292;50.944;4.034;2023-11-21T09:01:33;13.30;99.90
31131;DHT22;20292;50.944;4.034;2023-11-21T09:03:58;13.30;99.90
31131;DHT22;20292;50.944;4.034;2023-11-21T09:06:24;13.30;99.90
31131;DHT22;20292;50.944;4.034;2023-11-21T09:08:50;13.40;99.90
31131;DHT22;20292;50.944;4.034;2023-11-21T09:11:16;13.30;99.90
31131;DHT22;20292;50.944;4.034;2023-11-21T09:13:42;13.30;99.90
31131;DHT22;20292;50.944;4.034;2023-11-21T09:16:08;13.20;99.90
31131;DHT22;20292;50.944;4.034;2023-11-21T09:18:33;13.20;99.90
31131;DHT22;20292;50.944;4.034;2023-11-21T09:20:59;13.10;99.90
31131;DHT22;20292;50.944;4.034;2023-11-21T09:23:25;13.10;99.90
31131;DHT22;20292;50.944;4.034;2023-11-21T09:25:50;13.10;99.90
31131;DHT22;20292;50.944;4.034;2023-11-21T09:28:17;13.10;99.90
31131;DHT22;20292;50.944;4.034;2023-11-21T09:30:43;13.20;99.90
31131;DHT22;20292;50.944;4.034;2023-11-21T09:33:09;13.10;99.90
31131;DHT22;20292;50.944;4.034;2023-11-21T09:35:37;12.90;99.90
31131;DHT22;20292;50.944;4.034;2023-11-21T09:38:03;12.70;99.90
31131;DHT22;20292;50.944;4.034;2023-11-21T09:40:35;12.70;99.90
31131;DHT22;20292;50.944;4.034;2023-11-21T09:43:02;12.60;99.90
31131;DHT22;20292;50.944;4.034;2023-11-21T09:45:35;12.50;99.90
31131;DHT22;20292;50.944;4.034;2023-11-21T09:48:01;12.50;99.90
31131;DHT22;20292;50.944;4.034;2023-11-21T09:50:27;12.40;99.90
31131;DHT22;20292;50.944;4.034;2023-11-21T09:53:11;12.50;99.90
31131;DHT22;20292;50.944;4.034;2023-11-21T09:55:42;12.40;99.90
31131;DHT22;20292;50.944;4.034;2023-11-21T09:58:09;12.50;99.90
31131;DHT22;20292;50.944;4.034;2023-11-21T10:00:49;12.40;99.90
31131;DHT22;20292;50.944;4.034;2023-11-21T10:03:15;12.60;99.90
31131;DHT22;20292;50.944;4.034;2023-11-21T10:05:43;12.60;99.90
31131;DHT22;20292;50.944;4.034;2023-11-21T10:08:10;12.70;99.90
31131;DHT22;20292;50.944;4.034;2023-11-21T10:10:37;12.90;99.90
31131;DHT22;20292;50.944;4.034;2023-11-21T10:13:05;13.00;99.90
31131;DHT22;20292;50.944;4.034;2023-11-21T10:15:33;13.10;99.90
31131;DHT22;20292;50.944;4.034;2023-11-21T10:18:04;13.10;99.90
31131;DHT22;20292;50.944;4.034;2023-11-21T10:20:32;13.20;99.90
31131;DHT22;20292;50.944;4.034;2023-11-21T10:22:59;13.30;99.90
31131;DHT22;20292;50.944;4.034;2023-11-21T10:25:27;13.50;99.90
31131;DHT22;20292;50.944;4.034;2023-11-21T10:27:58;13.50;99.90
31131;DHT22;20292;50.944;4.034;2023-11-21T10:30:36;13.50;99.90
31131;DHT22;20292;50.944;4.034;2023-11-21T10:33:07;13.60;99.90
31131;DHT22;20292;50.944;4.034;2023-11-21T10:35:46;13.70;99.90
31131;DHT22;20292;50.944;4.034;2023-11-21T10:38:16;13.70;99.90
31131;DHT22;20292;50.944;4.034;2023-11-21T10:40:42;13.60;99.90
31131;DHT22;20292;50.944;4.034;2023-11-21T10:43:10;13.70;99.90
31131;DHT22;20292;50.944;4.034;2023-11-21T10:45:39;13.80;99.90
31131;DHT22;20292;50.944;4.034;2023-11-21T10:48:06;13.70;99.90
31131;DHT22;20292;50.944;4.034;2023-11-21T10:50:34;13.80;99.90
31131;DHT22;20292;50.944;4.034;2023-11-21T10:53:03;13.70;99.90
31131;DHT22;20292;50.944;4.034;2023-11-21T10:55:30;13.60;99.90
31131;DHT22;20292;50.944;4.034;2023-11-21T10:57:59;13.50;99.90
31131;DHT22;20292;50.944;4.034;2023-11-21T11:00:26;13.50;99.90
31131;DHT22;20292;50.944;4.034;2023-11-21T11:02:52;13.60;99.90
31131;DHT22;20292;50.944;4.034;2023-11-21T11:05:21;13.50;99.90
31131;DHT22;20292;50.944;4.034;2023-11-21T11:07:50;13.40;99.90
31131;DHT22;20292;50.944;4.034;2023-11-21T11:10:20;13.10;99.90
31131;DHT22;20292;50.944;4.034;2023-11-21T11:12:48;13.00;99.90
31131;DHT22;20292;50.944;4.034;2023-11-21T11:15:16;13.10;99.90
31131;DHT22;20292;50.944;4.034;2023-11-21T11:17:42;13.30;99.90
31131;DHT22;20292;50.944;4.034;2023-11-21T11:20:13;13.40;99.90
31131;DHT22;20292;50.944;4.034;2023-11-21T11:22:59;13.40;99.90
31131;DHT22;20292;50.944;4.034;2023-11-21T11:25:46;13.40;99.90
31131;DHT22;20292;50.944;4.034;2023-11-21T11:28:29;13.30;99.90
31131;DHT22;20292;50.944;4.034;2023-11-21T11:31:24;13.20;99.90
31131;DHT22;20292;50.944;4.034;2023-11-21T11:34:07;13.30;99.90
31131;DHT22;20292;50.944;4.034;2023-11-21T11:36:52;13.40;99.90
31131;DHT22;20292;50.944;4.034;2023-11-21T11:39:30;13.60;99.90
31131;DHT22;20292;50.944;4.034;2023-11-21T11:41:57;13.70;99.90
31131;DHT22;20292;50.944;4.034;2023-11-21T11:44:47;13.60;99.90
31131;DHT22;20292;50.944;4.034;2023-11-21T11:47:15;13.60;99.90
31131;DHT22;20292;50.944;4.034;2023-11-21T11:52:40;13.50;99.90
31131;DHT22;20292;50.944;4.034;2023-11-21T11:55:07;13.30;99.90
31131;DHT22;20292;50.944;4.034;2023-11-21T11:57:35;13.10;99.90
31131;DHT22;20292;50.944;4.034;2023-11-21T12:02:38;13.20;99.90
31131;DHT22;20292;50.944;4.034;2023-11-21T12:05:11;13.10;99.90
31131;DHT22;20292;50.944;4.034;2023-11-21T12:07:55;13.00;99.90
31131;DHT22;20292;50.944;4.034;2023-11-21T12:10:27;12.90;99.90
31131;DHT22;20292;50.944;4.034;2023-11-21T12:12:56;12.80;99.90
31131;DHT22;20292;50.944;4.034;2023-11-21T12:15:22;12.70;99.90
31131;DHT22;20292;50.944;4.034;2023-11-21T12:17:49;12.70;99.90
31131;DHT22;20292;50.944;4.034;2023-11-21T12:20:18;12.70;99.90
31131;DHT22;20292;50.944;4.034;2023-11-21T12:22:48;12.80;99.90
31131;DHT22;20292;50.944;4.034;2023-11-21T12:25:18;12.90;99.90
31131;DHT22;20292;50.944;4.034;2023-11-21T12:27:49;13.00;99.90
31131;DHT22;20292;50.944;4.034;2023-11-21T12:30:16;13.10;99.90
31131;DHT22;20292;50.944;4.034;2023-11-21T12:32:48;13.00;99.90
31131;DHT22;20292;50.944;4.034;2023-11-21T12:35:14;13.00;99.90
31131;DHT22;20292;50.944;4.034;2023-11-21T12:37:41;12.90;99.90
31131;DHT22;20292;50.944;4.034;2023-11-21T12:40:09;12.80;99.90
31131;DHT22;20292;50.944;4.034;2023-11-21T12:42:39;12.80;99.90
31131;DHT22;20292;50.944;4.034;2023-11-21T12:45:19;12.80;99.90
31131;DHT22;20292;50.944;4.034;2023-11-21T12:47:50;12.80;99.90
31131;DHT22;20292;50.944;4.034;2023-11-21T12:50:18;12.80;99.90
31131;DHT22;20292;50.944;4.034;2023-11-21T12:52:47;12.80;99.90
31131;DHT22;20292;50.944;4.034;2023-11-21T12:55:20;12.80;99.90
31131;DHT22;20292;50.944;4.034;2023-11-21T12:57:51;12.80;99.90
31131;DHT22;20292;50.944;4.034;2023-11-21T13:00:18;12.70;99.90
31131;DHT22;20292;50.944;4.034;2023-11-21T13:02:57;12.70;99.90
31131;DHT22;20292;50.944;4.034;2023-11-21T13:05:28;12.70;99.90
31131;DHT22;20292;50.944;4.034;2023-11-21T13:07:54;12.50;99.90
31131;DHT22;20292;50.944;4.034;2023-11-21T13:10:24;12.50;99.90
31131;DHT22;20292;50.944;4.034;2023-11-21T13:12:52;12.50;99.90
31131;DHT22;20292;50.944;4.034;2023-11-21T13:15:18;12.50;99.90
31131;DHT22;20292;50.944;4.034;2023-11-21T13:17:45;12.40;99.90
31131;DHT22;20292;50.944;4.034;2023-11-21T13:20:12;12.50;99.90
31131;DHT22;20292;50.944;4.034;2023-11-21T13:25:12;12.40;99.90
31131;DHT22;20292;50.944;4.034;2023-11-21T13:27:40;12.50;99.90
31131;DHT22;20292;50.944;4.034;2023-11-21T13:30:06;12.40;99.90
31131;DHT22;20292;50.944;4.034;2023-11-21T13:32:34;12.40;99.90
31131;DHT22;20292;50.944;4.034;2023-11-21T13:34:59;12.40;99.90
31131;DHT22;20292;50.944;4.034;2023-11-21T13:37:25;12.20;99.90
31131;DHT22;20292;50.944;4.034;2023-11-21T13:39:53;12.20;99.90
31131;DHT22;20292;50.944;4.034;2023-11-21T13:42:20;12.20;99.90
31131;DHT22;20292;50.944;4.034;2023-11-21T13:44:49;12.10;99.90
31131;DHT22;20292;50.944;4.034;2023-11-21T13:47:17;12.10;99.90
31131;DHT22;20292;50.944;4.034;2023-11-21T13:49:42;12.00;99.90
31131;DHT22;20292;50.944;4.034;2023-11-21T13:52:08;11.90;99.90
31131;DHT22;20292;50.944;4.034;2023-11-21T13:54:36;11.90;99.90
31131;DHT22;20292;50.944;4.034;2023-11-21T13:57:02;11.80;99.90
31131;DHT22;20292;50.944;4.034;2023-11-21T13:59:28;11.90;99.90
31131;DHT22;20292;50.944;4.034;2023-11-21T14:01:56;12.00;99.90
31131;DHT22;20292;50.944;4.034;2023-11-21T14:04:25;12.00;99.90
31131;DHT22;20292;50.944;4.034;2023-11-21T14:06:57;12.00;99.90
31131;DHT22;20292;50.944;4.034;2023-11-21T14:09:26;12.00;99.90
31131;DHT22;20292;50.944;4.034;2023-11-21T14:11:58;12.00;99.90
31131;DHT22;20292;50.944;4.034;2023-11-21T14:14:26;11.90;99.90
31131;DHT22;20292;50.944;4.034;2023-11-21T14:16:54;11.90;99.90
31131;DHT22;20292;50.944;4.034;2023-11-21T14:19:21;11.80;99.90
31131;DHT22;20292;50.944;4.034;2023-11-21T14:21:47;11.70;99.90
31131;DHT22;20292;50.944;4.034;2023-11-21T14:24:16;11.70;99.90
31131;DHT22;20292;50.944;4.034;2023-11-21T14:26:48;11.80;99.90
31131;DHT22;20292;50.944;4.034;2023-11-21T14:29:14;11.80;99.90
31131;DHT22;20292;50.944;4.034;2023-11-21T14:31:43;11.80;99.90
31131;DHT22;20292;50.944;4.034;2023-11-21T14:34:09;11.70;99.90
31131;DHT22;20292;50.944;4.034;2023-11-21T14:36:35;11.70;99.90
31131;DHT22;20292;50.944;4.034;2023-11-21T14:39:02;11.80;99.90
31131;DHT22;20292;50.944;4.034;2023-11-21T14:41:32;11.70;99.90
31131;DHT22;20292;50.944;4.034;2023-11-21T14:44:00;11.70;99.90
31131;DHT22;20292;50.944;4.034;2023-11-21T14:46:28;11.70;99.90
31131;DHT22;20292;50.944;4.034;2023-11-21T14:48:54;11.80;99.90
31131;DHT22;20292;50.944;4.034;2023-11-21T14:51:28;11.80;99.90
31131;DHT22;20292;50.944;4.034;2023-11-21T14:54:00;11.80;99.90
31131;DHT22;20292;50.944;4.034;2023-11-21T14:56:32;11.80;99.90
31131;DHT22;20292;50.944;4.034;2023-11-21T14:59:01;11.90;99.90
31131;DHT22;20292;50.944;4.034;2023-11-21T15:01:45;11.80;99.90
31131;DHT22;20292;50.944;4.034;2023-11-21T15:04:23;11.80;99.90
31131;DHT22;20292;50.944;4.034;2023-11-21T15:07:01;11.70;99.90
31131;DHT22;20292;50.944;4.034;2023-11-21T15:09:27;11.70;99.90
31131;DHT22;20292;50.944;4.034;2023-11-21T15:11:55;11.70;99.90
31131;DHT22;20292;50.944;4.034;2023-11-21T15:14:28;11.80;99.90
31131;DHT22;20292;50.944;4.034;2023-11-21T15:16:57;11.80;99.90
31131;DHT22;20292;50.944;4.034;2023-11-21T15:19:26;11.70;99.90
31131;DHT22;20292;50.944;4.034;2023-11-21T15:21:53;11.70;99.90
31131;DHT22;20292;50.944;4.034;2023-11-21T15:24:19;11.70;99.90
31131;DHT22;20292;50.944;4.034;2023-11-21T15:26:44;11.70;99.90
31131;DHT22;20292;50.944;4.034;2023-11-21T15:29:10;11.80;99.90
31131;DHT22;20292;50.944;4.034;2023-11-21T15:31:36;11.80;99.90
31131;DHT22;20292;50.944;4.034;2023-11-21T15:34:03;11.70;99.90
31131;DHT22;20292;50.944;4.034;2023-11-21T15:36:30;11.70;99.90
31131;DHT22;20292;50.944;4.034;2023-11-21T15:38:56;11.60;99.90
31131;DHT22;20292;50.944;4.034;2023-11-21T15:41:21;11.60;99.90